Time;durP1;ratioP1;P1;durP2;ratioP2;P2;SDS_P1;SDS_P2;PMS_P1;PMS_P2;Temp;Humidity;BMP_temperature;BMP_pressure;BME280_temperature;BME280_humidity;BME280_pressure;Samples;Min_cycle;Max_cycle;Signal;HPM_P1;HPM_P2
2020/12/17 00:00:42;;;;;;;11.85;5.63;;;;;;;9.46;100.00;100921.56;4915905;29;20035;-72
2020/12/17 00:03:08;;;;;;;10.80;5.90;;;;;;;9.45;100.00;100921.63;4913752;29;20420;-72
2020/12/17 00:05:33;;;;;;;9.75;6.05;;;;;;;9.49;100.00;100918.72;4932718;29;20050;-72
2020/12/17 00:07:58;;;;;;;12.35;5.40;;;;;;;9.42;100.00;100921.81;4938043;28;20054;-72
2020/12/17 00:10:24;;;;;;;15.55;5.25;;;;;;;9.48;100.00;100930.38;4945813;28;20083;-72
2020/12/17 00:12:49;;;;;;;14.32;5.78;;;;;;;9.41;100.00;100926.31;4932261;29;20054;-72
2020/12/17 00:15:18;;;;;;;9.50;5.63;;;;;;;9.50;100.00;100922.28;4931165;29;20039;-72
2020/12/17 00:17:50;;;;;;;11.40;5.45;;;;;;;9.45;100.00;100911.78;4940034;28;20046;-71
2020/12/17 00:20:17;;;;;;;;;;;;;;;9.71;100.00;100913.00;4932184;29;20373;-71
2020/12/17 00:22:43;;;;;;;13.00;5.47;;;;;;;9.67;100.00;100912.31;4930972;29;19918;-72
2020/12/17 00:25:10;;;;;;;20.27;6.45;;;;;;;9.61;100.00;100912.66;4930862;29;20415;-72
2020/12/17 00:27:36;;;;;;;17.73;5.93;;;;;;;9.65;100.00;100911.53;4930416;29;20036;-72
2020/12/17 00:30:04;;;;;;;10.13;5.15;;;;;;;9.72;100.00;100909.34;4929421;29;20140;-72
2020/12/17 00:32:29;;;;;;;13.23;5.80;;;;;;;9.78;100.00;100916.19;4934190;29;20233;-71
2020/12/17 00:34:55;;;;;;;8.95;5.05;;;;;;;9.72;100.00;100902.19;4932312;29;20058;-71
2020/12/17 00:37:20;;;;;;;10.00;4.93;;;;;;;9.79;100.00;100899.16;4919198;29;20043;-72
2020/12/17 00:39:45;;;;;;;7.65;5.00;;;;;;;9.79;100.00;100896.47;4930151;29;20043;-71
2020/12/17 00:42:11;;;;;;;7.82;4.88;;;;;;;9.87;100.00;100902.25;4930870;29;20039;-72
2020/12/17 00:44:36;;;;;;;9.23;4.60;;;;;;;9.94;100.00;100896.41;4934190;29;20039;-72
2020/12/17 00:47:02;;;;;;;8.55;4.47;;;;;;;9.95;100.00;100899.97;4947291;28;20042;-71
2020/12/17 00:49:27;;;;;;;15.52;5.85;;;;;;;9.98;100.00;100911.41;4944132;28;20028;-72
2020/12/17 00:52:00;;;;;;;10.23;5.07;;;;;;;9.93;100.00;100918.00;4933032;29;20037;-72
2020/12/17 00:54:28;;;;;;;8.52;4.97;;;;;;;9.89;100.00;100911.91;4952923;28;20114;-72
2020/12/17 00:56:53;;;;;;;7.60;5.25;;;;;;;9.96;100.00;100923.16;4948188;28;20060;-72
2020/12/17 00:59:19;;;;;;;8.57;4.78;;;;;;;10.02;100.00;100918.28;4953215;28;20604;-72
2020/12/17 01:01:44;;;;;;;8.63;4.45;;;;;;;10.11;100.00;100914.22;4951731;28;20487;-71
2020/12/17 01:04:10;;;;;;;14.32;5.50;;;;;;;10.17;100.00;100905.84;4951634;28;20039;-71
2020/12/17 01:06:35;;;;;;;8.40;4.50;;;;;;;10.10;100.00;100915.16;4945418;28;20102;-72
2020/12/17 01:09:00;;;;;;;11.48;4.50;;;;;;;10.03;100.00;100919.16;4951925;28;20035;-72
2020/12/17 01:11:27;;;;;;;8.75;4.40;;;;;;;9.92;100.00;100924.28;4950214;28;20081;-72
2020/12/17 01:13:53;;;;;;;10.30;4.50;;;;;;;9.82;100.00;100925.75;4949953;28;20074;-72
2020/12/17 01:16:18;;;;;;;7.10;4.57;;;;;;;9.81;100.00;100924.06;4946369;28;20067;-72
2020/12/17 01:18:43;;;;;;;7.80;4.13;;;;;;;9.79;100.00;100924.16;4946016;28;20035;-72
2020/12/17 01:21:09;;;;;;;10.52;4.22;;;;;;;9.94;100.00;100930.41;4950426;28;20040;-72
2020/12/17 01:23:34;;;;;;;7.57;4.75;;;;;;;10.06;100.00;100924.38;4929634;28;20050;-72
2020/12/17 01:25:59;;;;;;;11.45;4.50;;;;;;;9.98;100.00;100921.25;4943366;28;20047;-72
2020/12/17 01:28:25;;;;;;;13.02;5.47;;;;;;;10.03;100.00;100919.16;4947341;28;20031;-71
2020/12/17 01:30:51;;;;;;;6.57;5.03;;;;;;;10.00;100.00;100922.00;4929365;29;20039;-72
2020/12/17 01:33:18;;;;;;;11.70;4.97;;;;;;;10.07;100.00;100926.94;4932594;28;20039;-72
2020/12/17 01:35:45;;;;;;;7.10;4.85;;;;;;;10.02;100.00;100917.44;4949297;28;20395;-71
2020/12/17 01:38:10;;;;;;;8.75;5.00;;;;;;;10.06;100.00;100921.69;4944887;28;20040;-72
2020/12/17 01:40:35;;;;;;;9.43;5.30;;;;;;;10.08;100.00;100919.75;4944250;28;20038;-72
2020/12/17 01:43:01;;;;;;;8.43;4.88;;;;;;;10.07;100.00;100921.56;4949793;28;20039;-72
2020/12/17 01:45:26;;;;;;;12.02;5.60;;;;;;;10.18;100.00;100926.34;4950653;28;20091;-72
2020/12/17 01:47:52;;;;;;;18.25;5.57;;;;;;;10.12;100.00;100932.88;4945478;28;20050;-72
2020/12/17 01:50:19;;;;;;;11.52;5.65;;;;;;;10.14;100.00;100930.13;4945151;29;20040;-72
2020/12/17 01:52:44;;;;;;;11.50;5.25;;;;;;;10.25;100.00;100938.41;4950166;28;20087;-72
2020/12/17 01:55:10;;;;;;;11.68;5.55;;;;;;;10.36;100.00;100935.97;4943358;28;20518;-71
2020/12/17 01:57:36;;;;;;;17.15;6.63;;;;;;;10.26;100.00;100931.25;4949876;28;20038;-72
2020/12/17 02:00:06;;;;;;;13.50;5.65;;;;;;;10.31;100.00;100931.81;4952397;28;20042;-71
2020/12/17 02:02:33;;;;;;;12.52;6.47;;;;;;;10.32;100.00;100925.50;4933045;29;20031;-72
2020/12/17 02:05:00;;;;;;;12.45;6.55;;;;;;;10.31;100.00;100927.31;4946626;28;20518;-72
2020/12/17 02:07:27;;;;;;;10.77;6.38;;;;;;;10.37;100.00;100918.06;4950530;28;20027;-72
2020/12/17 02:09:53;;;;;;;9.90;5.57;;;;;;;10.29;100.00;100921.19;4948573;28;20138;-72
2020/12/17 02:12:19;;;;;;;17.90;7.50;;;;;;;10.38;100.00;100926.00;4945755;28;20114;-71
2020/12/17 02:14:44;;;;;;;12.45;6.35;;;;;;;10.29;100.00;100926.56;4934355;28;20082;-72
2020/12/17 02:17:09;;;;;;;9.75;6.03;;;;;;;10.18;100.00;100926.34;4951032;28;20039;-72
2020/12/17 02:19:35;;;;;;;10.82;6.35;;;;;;;10.25;100.00;100924.13;4935118;28;20133;-72
2020/12/17 02:22:00;;;;;;;12.48;6.03;;;;;;;10.26;100.00;100926.75;4922206;28;20188;-72
2020/12/17 02:24:27;;;;;;;10.27;5.72;;;;;;;10.20;100.00;100927.09;4932970;28;20035;-72
2020/12/17 02:26:52;;;;;;;14.75;5.85;;;;;;;10.15;100.00;100924.66;4940245;28;20039;-72
2020/12/17 02:29:18;;;;;;;16.73;6.93;;;;;;;10.14;100.00;100922.94;4945340;28;20058;-72
2020/12/17 02:31:44;;;;;;;10.60;6.13;;;;;;;10.12;100.00;100929.38;4951074;28;20031;-72
2020/12/17 02:34:10;;;;;;;10.30;6.30;;;;;;;10.03;100.00;100924.53;4918112;29;20039;-72
2020/12/17 02:36:35;;;;;;;17.85;6.90;;;;;;;10.05;100.00;100915.44;4948819;28;20777;-72
2020/12/17 02:39:02;;;;;;;15.70;6.82;;;;;;;10.01;100.00;100911.19;4947919;28;20035;-72
2020/12/17 02:41:27;;;;;;;14.00;6.78;;;;;;;10.25;100.00;100906.22;4946501;28;20031;-71
2020/12/17 02:43:53;;;;;;;14.90;8.18;;;;;;;10.07;100.00;100904.59;4940093;28;20514;-71
2020/12/17 02:46:19;;;;;;;16.23;8.30;;;;;;;10.13;100.00;100914.97;4942250;28;20031;-71
2020/12/17 02:48:52;;;;;;;16.33;9.07;;;;;;;10.07;100.00;100923.38;4956262;28;20114;-71
2020/12/17 02:51:18;;;;;;;;;;;;;;;10.05;100.00;100917.25;4946769;28;20396;-72
2020/12/17 02:53:44;;;;;;;18.27;8.77;;;;;;;9.91;100.00;100915.38;4946655;28;19914;-72
2020/12/17 02:56:13;;;;;;;20.45;9.20;;;;;;;9.96;100.00;100917.78;4945456;28;20040;-72
2020/12/17 02:58:39;;;;;;;17.00;8.43;;;;;;;9.94;100.00;100915.19;4946807;28;20513;-71
2020/12/17 03:01:04;;;;;;;18.10;9.30;;;;;;;9.99;100.00;100907.78;4946322;28;20400;-71
2020/12/17 03:03:29;;;;;;;17.40;8.25;;;;;;;9.91;100.00;100914.53;4942045;28;20091;-72
2020/12/17 03:05:55;;;;;;;14.68;8.07;;;;;;;9.97;100.00;100908.81;4952648;28;20043;-72
2020/12/17 03:08:20;;;;;;;16.30;9.23;;;;;;;9.97;100.00;100903.44;4951585;28;20163;-73
2020/12/17 03:10:46;;;;;;;13.90;8.65;;;;;;;9.92;100.00;100905.53;4952100;28;20042;-72
2020/12/17 03:13:11;;;;;;;18.52;8.90;;;;;;;9.90;100.00;100904.75;4968573;28;20086;-72
2020/12/17 03:15:37;;;;;;;15.45;8.50;;;;;;;9.89;100.00;100903.00;4950751;28;20077;-72
2020/12/17 03:18:02;;;;;;;17.15;8.63;;;;;;;9.85;100.00;100899.66;4981731;28;20035;-72
2020/12/17 03:20:28;;;;;;;15.95;9.35;;;;;;;9.86;100.00;100901.41;4953164;28;20039;-72
2020/12/17 03:22:53;;;;;;;19.05;9.13;;;;;;;9.82;100.00;100904.31;4950365;28;20451;-72
2020/12/17 03:25:19;;;;;;;18.90;10.93;;;;;;;9.86;100.00;100908.56;4958226;28;20046;-72
2020/12/17 03:27:44;;;;;;;25.90;10.00;;;;;;;9.78;100.00;100908.13;4935063;29;20373;-72
2020/12/17 03:30:10;;;;;;;16.73;10.07;;;;;;;9.79;100.00;100904.50;4941788;28;20414;-72
2020/12/17 03:32:35;;;;;;;27.20;11.32;;;;;;;9.80;100.00;100911.59;4951626;28;20114;-72
2020/12/17 03:35:00;;;;;;;24.55;10.82;;;;;;;9.72;100.00;100910.22;4955467;28;20063;-72
2020/12/17 03:37:27;;;;;;;18.98;10.88;;;;;;;9.74;100.00;100911.00;4952509;28;20046;-72
2020/12/17 03:39:52;;;;;;;20.52;10.95;;;;;;;9.71;100.00;100903.13;4962963;28;20039;-72
2020/12/17 03:42:19;;;;;;;19.20;9.77;;;;;;;9.69;100.00;100905.03;4948470;28;20039;-71
2020/12/17 03:44:44;;;;;;;20.55;11.50;;;;;;;9.72;100.00;100899.50;4949580;28;20049;-72
2020/12/17 03:47:10;;;;;;;21.33;11.05;;;;;;;9.71;100.00;100899.59;4950909;28;20039;-72
2020/12/17 03:49:35;;;;;;;20.45;10.85;;;;;;;9.74;100.00;100897.63;4942738;28;20027;-72
2020/12/17 03:52:01;;;;;;;25.10;10.95;;;;;;;9.74;100.00;100892.25;4951842;28;20391;-72
2020/12/17 03:54:29;;;;;;;23.30;11.82;;;;;;;9.77;100.00;100891.19;4952839;28;20046;-72
2020/12/17 03:56:54;;;;;;;20.80;10.55;;;;;;;9.75;100.00;100891.28;4950370;28;20669;-72
2020/12/17 03:59:20;;;;;;;19.90;11.00;;;;;;;9.68;100.00;100891.75;4964467;28;20046;-71
2020/12/17 04:01:45;;;;;;;20.25;11.30;;;;;;;9.67;100.00;100892.69;4966884;28;20042;-72
2020/12/17 04:04:11;;;;;;;21.75;11.00;;;;;;;9.58;100.00;100891.38;4948316;28;20054;-72
2020/12/17 04:06:36;;;;;;;21.80;11.52;;;;;;;9.69;100.00;100888.94;4950227;28;20031;-72
2020/12/17 04:09:02;;;;;;;19.75;11.23;;;;;;;9.63;100.00;100894.66;4962318;28;20040;-72
2020/12/17 04:11:27;;;;;;;19.95;11.27;;;;;;;9.55;100.00;100891.59;4949505;28;20038;-72
2020/12/17 04:13:53;;;;;;;19.15;10.27;;;;;;;9.44;100.00;100893.16;4946912;28;20040;-72
2020/12/17 04:16:18;;;;;;;20.30;11.18;;;;;;;9.43;100.00;100891.41;4948838;28;20693;-73
2020/12/17 04:18:44;;;;;;;22.95;10.40;;;;;;;9.53;100.00;100885.44;4951383;28;20031;-72
2020/12/17 04:21:09;;;;;;;20.48;10.15;;;;;;;9.56;100.00;100890.63;4964246;28;20147;-72
2020/12/17 04:23:34;;;;;;;21.77;9.75;;;;;;;9.56;100.00;100898.66;4952688;28;20035;-72
2020/12/17 04:26:00;;;;;;;20.80;9.80;;;;;;;9.51;100.00;100895.38;4950365;28;20083;-72
2020/12/17 04:28:27;;;;;;;20.60;11.38;;;;;;;9.52;100.00;100909.63;4965422;28;20043;-72
2020/12/17 04:30:54;;;;;;;21.13;10.27;;;;;;;9.57;100.00;100904.88;4950843;28;20058;-72
2020/12/17 04:33:19;;;;;;;16.67;9.52;;;;;;;9.60;100.00;100910.06;4949440;28;20043;-72
2020/12/17 04:35:45;;;;;;;20.02;10.80;;;;;;;9.49;100.00;100901.78;4934986;29;20046;-72
2020/12/17 04:38:10;;;;;;;15.52;8.95;;;;;;;9.56;100.00;100904.03;4949723;28;20034;-72
2020/12/17 04:40:36;;;;;;;22.27;9.00;;;;;;;9.56;100.00;100904.03;4947086;29;20087;-72
2020/12/17 04:43:02;;;;;;;18.40;8.82;;;;;;;9.59;100.00;100909.19;4949073;28;20035;-72
2020/12/17 04:45:28;;;;;;;18.60;9.07;;;;;;;9.54;100.00;100911.28;4943367;29;20035;-72
2020/12/17 04:47:54;;;;;;;23.48;9.02;;;;;;;9.55;100.00;100913.00;4929257;29;20059;-72
2020/12/17 04:50:24;;;;;;;27.75;9.32;;;;;;;9.49;100.00;100913.38;4926742;29;20043;-72
2020/12/17 04:52:52;;;;;;;18.42;8.55;;;;;;;9.42;100.00;100909.31;4914906;29;20047;-72
2020/12/17 04:55:17;;;;;;;18.30;8.38;;;;;;;9.38;100.00;100921.13;4935734;29;20480;-72
2020/12/17 04:57:46;;;;;;;21.27;9.35;;;;;;;9.32;100.00;100932.19;4930734;29;20038;-72
2020/12/17 05:00:13;;;;;;;17.20;9.20;;;;;;;9.31;100.00;100927.81;4934626;29;20054;-72
2020/12/17 05:02:46;;;;;;;16.83;8.98;;;;;;;9.29;100.00;100927.00;4930014;29;20024;-72
2020/12/17 05:05:12;;;;;;;22.40;9.95;;;;;;;9.27;100.00;100923.53;4914796;29;20024;-72
2020/12/17 05:07:39;;;;;;;19.85;9.45;;;;;;;9.25;100.00;100925.47;4930658;29;20122;-72
2020/12/17 05:10:05;;;;;;;18.80;8.38;;;;;;;9.22;100.00;100928.28;4928361;29;20511;-72
2020/12/17 05:12:31;;;;;;;17.05;9.45;;;;;;;9.21;100.00;100932.78;4934776;29;20027;-72
2020/12/17 05:14:56;;;;;;;18.83;9.40;;;;;;;9.25;100.00;100936.19;4919426;29;20031;-72
2020/12/17 05:17:22;;;;;;;16.17;9.35;;;;;;;9.23;100.00;100935.38;4932434;29;20624;-72
2020/12/17 05:19:52;;;;;;;15.93;8.82;;;;;;;9.19;100.00;100936.50;4928185;29;20079;-72
2020/12/17 05:22:17;;;;;;;17.75;9.02;;;;;;;9.22;100.00;100939.00;4932292;29;20048;-72
2020/12/17 05:24:44;;;;;;;17.10;8.57;;;;;;;9.15;100.00;100938.47;4931746;29;20036;-72
2020/12/17 05:27:10;;;;;;;14.65;8.02;;;;;;;9.25;100.00;100941.53;4930922;29;20043;-72
2020/12/17 05:29:40;;;;;;;24.05;7.85;;;;;;;9.28;100.00;100946.69;4932094;29;20027;-72
2020/12/17 05:32:07;;;;;;;15.18;8.43;;;;;;;9.26;100.00;100949.47;4929400;29;20067;-72
2020/12/17 05:34:33;;;;;;;22.17;8.43;;;;;;;9.43;100.00;100953.03;4915032;29;20046;-72
2020/12/17 05:36:59;;;;;;;18.13;7.35;;;;;;;9.42;100.00;100965.56;4931396;29;20028;-72
2020/12/17 05:39:25;;;;;;;15.82;8.23;;;;;;;9.37;100.00;100967.63;4928109;29;20115;-72
2020/12/17 05:41:53;;;;;;;14.07;7.53;;;;;;;9.47;100.00;100974.22;4932173;29;20031;-72
2020/12/17 05:44:20;;;;;;;24.52;9.25;;;;;;;9.54;100.00;100980.09;4931919;29;20345;-72
2020/12/17 05:46:48;;;;;;;16.63;8.13;;;;;;;9.50;100.00;100982.09;4946786;28;20042;-72
2020/12/17 05:49:24;;;;;;;21.35;9.23;;;;;;;9.54;100.00;100983.63;4952221;28;20439;-72
2020/12/17 05:52:07;;;;;;;19.05;9.95;;;;;;;9.61;100.00;100987.72;4949558;28;20082;-73
2020/12/17 05:54:33;;;;;;;18.50;9.82;;;;;;;9.68;100.00;100994.47;4950256;28;20062;-72
2020/12/17 05:57:06;;;;;;;17.48;10.32;;;;;;;9.69;100.00;100996.16;4946809;28;20115;-72
2020/12/17 05:59:32;;;;;;;14.80;7.53;;;;;;;9.80;100.00;101000.06;4950907;28;20106;-72
2020/12/17 06:01:58;;;;;;;15.43;8.43;;;;;;;9.71;100.00;101004.13;4949843;28;20470;-73
2020/12/17 06:04:23;;;;;;;12.75;7.47;;;;;;;9.69;100.00;101017.59;4951415;28;20078;-72
2020/12/17 06:06:49;;;;;;;12.20;6.78;;;;;;;9.63;100.00;101009.03;4944689;28;20066;-72
2020/12/17 06:09:22;;;;;;;13.63;7.47;;;;;;;9.77;100.00;101019.00;4933992;29;20042;-72
2020/12/17 06:11:51;;;;;;;;;;;;;;;9.71;100.00;101021.06;4949593;28;20501;-72
2020/12/17 06:14:23;;;;;;;17.98;6.22;;;;;;;9.73;100.00;101023.69;4931299;28;19918;-72
2020/12/17 06:16:53;;;;;;;18.85;7.10;;;;;;;9.78;100.00;101032.31;4948684;29;20035;-72
2020/12/17 06:19:23;;;;;;;13.80;6.80;;;;;;;9.82;100.00;101039.22;4964351;28;20114;-72
2020/12/17 06:21:49;;;;;;;12.82;5.82;;;;;;;10.02;100.00;101047.03;4948143;28;20418;-72
2020/12/17 06:24:19;;;;;;;17.05;6.82;;;;;;;9.96;100.00;101057.22;4949500;28;20058;-73
2020/12/17 06:26:52;;;;;;;12.43;6.20;;;;;;;9.99;100.00;101051.72;4943347;29;20089;-72
2020/12/17 06:29:21;;;;;;;12.55;6.22;;;;;;;10.06;100.00;101053.09;4943671;28;20110;-72
2020/12/17 06:31:57;;;;;;;11.43;5.72;;;;;;;9.93;100.00;101057.41;4948338;28;20503;-72
2020/12/17 06:34:37;;;;;;;16.58;6.95;;;;;;;9.94;100.00;101048.41;4929807;29;20035;-72
2020/12/17 06:37:03;;;;;;;21.10;7.60;;;;;;;9.90;100.00;101057.56;4953681;28;20053;-72
2020/12/17 06:39:29;;;;;;;12.20;6.75;;;;;;;9.94;100.00;101056.44;4949926;28;20050;-72
2020/12/17 06:41:54;;;;;;;11.48;6.07;;;;;;;9.93;100.00;101060.97;4946656;28;20040;-72
2020/12/17 06:44:31;;;;;;;12.13;6.53;;;;;;;9.88;100.00;101064.81;4951544;28;20039;-73
2020/12/17 06:47:02;;;;;;;11.82;6.03;;;;;;;9.96;100.00;101068.81;4931241;29;20031;-74
2020/12/17 06:49:29;;;;;;;15.88;7.35;;;;;;;9.89;100.00;101082.66;4943313;28;20031;-74
2020/12/17 06:52:12;;;;;;;11.85;6.60;;;;;;;9.96;100.00;101079.56;4943620;28;20408;-72
2020/12/17 06:54:40;;;;;;;9.55;6.22;;;;;;;9.88;100.00;101075.56;4943159;28;20122;-72
2020/12/17 06:57:07;;;;;;;8.02;5.82;;;;;;;9.90;100.00;101087.06;4932999;28;20082;-72
2020/12/17 06:59:32;;;;;;;12.07;6.30;;;;;;;9.98;100.00;101087.53;4953101;28;20036;-71
2020/12/17 07:01:58;;;;;;;10.75;5.68;;;;;;;9.94;100.00;101091.31;4949796;28;20400;-72
2020/12/17 07:04:36;;;;;;;13.07;6.75;;;;;;;9.87;100.00;101096.16;4952405;28;20035;-72
2020/12/17 07:07:23;;;;;;;13.18;6.47;;;;;;;9.94;100.00;101096.66;4946494;28;20039;-73
2020/12/17 07:09:57;;;;;;;12.50;6.60;;;;;;;9.87;100.00;101109.56;4936274;29;20126;-72
2020/12/17 07:12:34;;;;;;;18.23;8.30;;;;;;;9.81;100.00;101111.72;4952740;28;20118;-72
2020/12/17 07:15:01;;;;;;;9.38;5.90;;;;;;;9.87;100.00;101119.44;4947217;28;20071;-72
2020/12/17 07:17:26;;;;;;;11.30;6.45;;;;;;;9.89;100.00;101114.81;4948465;28;20054;-72
2020/12/17 07:19:53;;;;;;;14.30;6.20;;;;;;;9.79;100.00;101129.69;4934311;29;20039;-72
2020/12/17 07:22:19;;;;;;;9.20;5.50;;;;;;;9.82;100.00;101142.91;4949787;28;20257;-72
2020/12/17 07:24:51;;;;;;;12.02;5.57;;;;;;;9.86;100.00;101133.78;4935647;29;20039;-72
2020/12/17 07:27:17;;;;;;;6.55;4.57;;;;;;;9.91;100.00;101139.75;4943842;28;20063;-72
2020/12/17 07:29:51;;;;;;;10.93;4.38;;;;;;;9.85;100.00;101161.53;4948944;28;20126;-72
2020/12/17 07:32:33;;;;;;;8.15;4.97;;;;;;;9.72;100.00;101162.19;4943947;28;20031;-72
2020/12/17 07:35:20;;;;;;;11.50;4.10;;;;;;;9.75;100.00;101171.91;4936935;28;20134;-72
2020/12/17 07:37:49;;;;;;;11.13;4.28;;;;;;;9.72;100.00;101164.00;4951982;28;20035;-72
2020/12/17 07:40:51;;;;;;;8.00;4.53;;;;;;;9.71;100.00;101186.41;4943975;28;20054;-72
2020/12/17 07:43:17;;;;;;;8.63;4.78;;;;;;;9.65;100.00;101170.66;4902577;29;20489;-72
2020/12/17 07:45:55;;;;;;;11.18;4.95;;;;;;;9.68;100.00;101176.72;4945565;28;20106;-72
2020/12/17 07:48:46;;;;;;;7.10;4.43;;;;;;;9.58;100.00;101183.50;4964710;28;20043;-72
2020/12/17 07:51:14;;;;;;;11.70;5.20;;;;;;;9.64;100.00;101185.00;4948421;28;20070;-72
2020/12/17 07:53:46;;;;;;;9.05;5.05;;;;;;;9.63;100.00;101189.47;4953013;28;20053;-72
2020/12/17 07:56:12;;;;;;;10.27;4.68;;;;;;;9.60;100.00;101188.78;4948138;29;20063;-72
2020/12/17 07:58:39;;;;;;;9.65;4.57;;;;;;;9.55;100.00;101191.72;4948160;28;20171;-72
2020/12/17 08:01:05;;;;;;;9.48;5.65;;;;;;;9.57;100.00;101199.66;4949560;28;20027;-72
2020/12/17 08:03:41;;;;;;;13.98;7.75;;;;;;;9.49;100.00;101202.75;4953297;28;20385;-72
2020/12/17 08:06:08;;;;;;;9.82;5.93;;;;;;;9.50;100.00;101209.88;4952019;28;20031;-72
2020/12/17 08:08:34;;;;;;;9.93;5.60;;;;;;;9.45;100.00;101208.34;4958130;28;20023;-72
2020/12/17 08:11:02;;;;;;;11.85;6.47;;;;;;;9.47;100.00;101220.72;4952230;28;20046;-72
2020/12/17 08:13:27;;;;;;;7.50;5.07;;;;;;;9.53;100.00;101225.75;4953769;28;20031;-72
2020/12/17 08:16:00;;;;;;;13.45;5.57;;;;;;;9.53;100.00;101231.13;4945534;28;20042;-72
2020/12/17 08:18:28;;;;;;;8.60;5.28;;;;;;;9.57;100.00;101224.66;4951174;28;20043;-72
2020/12/17 08:21:05;;;;;;;8.43;4.90;;;;;;;9.56;100.00;101224.75;4949754;28;20062;-72
2020/12/17 08:23:35;;;;;;;6.57;4.53;;;;;;;9.48;100.00;101233.19;4963903;28;20035;-72
2020/12/17 08:26:03;;;;;;;9.23;4.60;;;;;;;9.50;100.00;101236.66;4949166;28;20028;-73
2020/12/17 08:28:30;;;;;;;11.55;6.30;;;;;;;9.48;100.00;101246.56;4950360;28;20039;-72
2020/12/17 08:31:06;;;;;;;10.35;4.88;;;;;;;9.45;100.00;101251.22;4957244;28;20089;-72
2020/12/17 08:33:34;;;;;;;7.97;4.78;;;;;;;9.41;100.00;101247.84;4951158;28;20491;-72
2020/12/17 08:36:04;;;;;;;11.25;5.47;;;;;;;9.37;100.00;101253.44;4952586;28;20027;-72
2020/12/17 08:38:30;;;;;;;7.93;4.78;;;;;;;9.31;100.00;101262.66;4964267;28;20689;-72
2020/12/17 08:40:57;;;;;;;10.10;5.03;;;;;;;9.36;100.00;101265.97;4951361;28;20036;-72
2020/12/17 08:43:25;;;;;;;8.15;4.45;;;;;;;9.30;100.00;101276.97;4953107;28;20503;-72
2020/12/17 08:45:53;;;;;;;9.43;4.20;;;;;;;9.42;100.00;101275.50;4954784;28;20053;-72
2020/12/17 08:48:19;;;;;;;11.73;4.35;;;;;;;9.50;100.00;101274.19;4952233;28;20495;-74
2020/12/17 08:50:46;;;;;;;10.13;5.07;;;;;;;9.40;100.00;101278.25;4917158;29;20039;-72
2020/12/17 08:53:22;;;;;;;12.35;4.43;;;;;;;9.32;100.00;101283.13;4951627;28;20058;-72
2020/12/17 08:56:11;;;;;;;9.10;4.88;;;;;;;9.41;100.00;101284.47;4951033;28;20033;-72
2020/12/17 08:58:47;;;;;;;8.80;4.97;;;;;;;9.49;100.00;101283.16;4950710;28;20050;-72
2020/12/17 09:01:14;;;;;;;6.45;3.78;;;;;;;9.52;100.00;101296.38;4948160;28;20575;-72
2020/12/17 09:03:45;;;;;;;7.25;4.15;;;;;;;9.50;100.00;101300.09;4950588;28;20079;-73
2020/12/17 09:06:11;;;;;;;6.35;2.97;;;;;;;9.52;100.00;101298.19;4945984;28;20039;-72
2020/12/17 09:08:36;;;;;;;6.57;3.95;;;;;;;9.75;100.00;101301.41;4947841;28;20027;-72
2020/12/17 09:11:01;;;;;;;6.03;3.42;;;;;;;9.70;100.00;101303.47;4934573;29;20395;-72
2020/12/17 09:13:28;;;;;;;5.15;3.33;;;;;;;9.76;100.00;101310.34;4943514;29;20492;-73
2020/12/17 09:16:01;;;;;;;7.55;3.30;;;;;;;9.67;100.00;101314.38;4949970;28;20031;-72
2020/12/17 09:18:28;;;;;;;7.25;3.35;;;;;;;9.70;100.00;101308.84;4950653;28;20066;-72
2020/12/17 09:21:11;;;;;;;4.13;2.53;;;;;;;9.80;100.00;101327.16;4938459;29;20035;-72
2020/12/17 09:23:37;;;;;;;;;;;;;;;9.77;100.00;101324.63;4956653;28;20031;-72
2020/12/17 09:26:11;;;;;;;7.60;3.03;;;;;;;9.86;100.00;101335.75;4944710;28;20276;-72
2020/12/17 09:28:36;;;;;;;6.07;2.80;;;;;;;9.96;100.00;101341.50;4955120;28;20086;-72
2020/12/17 09:31:02;;;;;;;5.72;2.55;;;;;;;9.81;100.00;101340.50;4952010;29;20035;-71
2020/12/17 09:33:27;;;;;;;5.97;2.67;;;;;;;9.87;100.00;101348.22;4951966;28;20031;-72
2020/12/17 09:35:53;;;;;;;5.20;2.55;;;;;;;9.93;100.00;101347.03;4946784;28;20122;-72
2020/12/17 09:38:19;;;;;;;4.60;2.20;;;;;;;9.84;100.00;101358.22;4937387;28;20023;-72
2020/12/17 09:40:51;;;;;;;4.35;2.08;;;;;;;9.79;100.00;101358.47;4931342;29;20587;-72
2020/12/17 09:43:17;;;;;;;3.92;2.55;;;;;;;9.83;100.00;101357.34;4954238;28;20151;-72
2020/12/17 09:45:47;;;;;;;5.38;2.47;;;;;;;9.94;100.00;101359.47;4934353;28;20638;-72
2020/12/17 09:48:22;;;;;;;4.05;2.30;;;;;;;9.94;100.00;101365.69;4932476;29;20054;-72
2020/12/17 09:51:00;;;;;;;3.92;2.78;;;;;;;9.88;100.00;101365.16;4936313;29;20106;-71
2020/12/17 09:53:27;;;;;;;7.28;2.40;;;;;;;9.80;100.00;101372.72;4949090;28;20031;-71
2020/12/17 09:55:52;;;;;;;5.05;2.67;;;;;;;9.84;100.00;101374.31;4936352;28;20035;-71
2020/12/17 09:58:19;;;;;;;5.93;2.53;;;;;;;9.88;100.00;101378.53;4945944;28;20773;-72
2020/12/17 10:00:44;;;;;;;5.05;2.45;;;;;;;9.87;100.00;101392.94;4935216;28;20030;-72
2020/12/17 10:03:10;;;;;;;7.15;2.42;;;;;;;9.92;100.00;101385.50;4941171;28;20038;-72
2020/12/17 10:05:36;;;;;;;5.72;2.63;;;;;;;9.83;100.00;101388.66;4927860;28;20027;-72
2020/12/17 10:08:01;;;;;;;5.97;2.35;;;;;;;9.90;100.00;101390.94;4948695;28;20043;-72
2020/12/17 10:10:29;;;;;;;6.22;2.53;;;;;;;9.95;100.00;101396.06;4931195;29;20031;-72
2020/12/17 10:12:58;;;;;;;6.00;2.70;;;;;;;9.96;100.00;101400.50;4947616;28;20032;-72
2020/12/17 10:15:27;;;;;;;5.47;2.70;;;;;;;10.01;100.00;101398.44;4932346;29;20524;-72
2020/12/17 10:17:53;;;;;;;5.55;2.83;;;;;;;10.05;100.00;101405.41;4946461;28;20126;-72
2020/12/17 10:20:19;;;;;;;11.90;2.63;;;;;;;10.10;100.00;101414.06;4950766;28;20519;-72
2020/12/17 10:22:45;;;;;;;4.90;1.80;;;;;;;10.10;100.00;101412.25;4932053;29;20059;-71
2020/12/17 10:25:11;;;;;;;7.15;2.50;;;;;;;10.25;100.00;101407.94;4950460;28;20073;-71
2020/12/17 10:27:37;;;;;;;5.75;2.15;;;;;;;10.15;100.00;101401.28;4949258;29;20035;-72
2020/12/17 10:30:04;;;;;;;5.18;1.85;;;;;;;10.24;100.00;101400.00;4950120;28;20049;-71
2020/12/17 10:32:30;;;;;;;5.22;2.20;;;;;;;10.18;100.00;101411.91;4943108;28;20027;-71
2020/12/17 10:34:56;;;;;;;7.40;2.20;;;;;;;10.24;100.00;101414.28;4928888;28;20067;-71
2020/12/17 10:37:21;;;;;;;5.00;2.08;;;;;;;10.28;100.00;101412.28;4948614;28;20081;-71
2020/12/17 10:39:47;;;;;;;4.35;1.90;;;;;;;10.32;100.00;101414.72;4932855;29;20042;-71
2020/12/17 10:42:13;;;;;;;10.20;2.15;;;;;;;10.44;100.00;101411.41;4948194;28;20139;-72
2020/12/17 10:44:38;;;;;;;6.85;2.58;;;;;;;10.42;100.00;101418.69;4946824;28;20125;-72
2020/12/17 10:47:04;;;;;;;10.00;3.20;;;;;;;10.49;100.00;101417.38;4947963;28;20673;-72
2020/12/17 10:49:30;;;;;;;7.25;1.95;;;;;;;10.59;100.00;101412.41;4943959;28;20260;-72
2020/12/17 10:51:55;;;;;;;7.97;2.20;;;;;;;10.62;100.00;101401.50;4948334;28;20039;-72
2020/12/17 10:54:21;;;;;;;8.23;3.05;;;;;;;10.67;100.00;101420.06;4950916;29;20046;-71
2020/12/17 10:56:46;;;;;;;7.38;2.22;;;;;;;10.54;100.00;101415.34;4931265;29;20038;-72
2020/12/17 10:59:13;;;;;;;4.18;1.90;;;;;;;10.46;100.00;101417.56;4951527;28;20050;-72
2020/12/17 11:01:38;;;;;;;5.55;1.80;;;;;;;10.59;100.00;101411.53;4945410;28;20436;-72
2020/12/17 11:04:04;;;;;;;5.53;2.08;;;;;;;10.60;100.00;101415.97;4946694;28;20035;-72
2020/12/17 11:06:29;;;;;;;5.72;1.83;;;;;;;10.61;100.00;101412.34;4948069;28;20031;-72
2020/12/17 11:08:54;;;;;;;4.68;2.22;;;;;;;10.60;100.00;101411.47;4946547;28;20027;-72
2020/12/17 11:11:20;;;;;;;11.15;2.20;;;;;;;10.64;100.00;101412.16;4945572;28;20079;-72
2020/12/17 11:13:45;;;;;;;4.80;2.20;;;;;;;10.61;99.30;101421.25;4947711;28;20102;-72
2020/12/17 11:16:11;;;;;;;3.30;1.60;;;;;;;10.55;99.90;101417.06;4948050;28;20035;-72
2020/12/17 11:18:38;;;;;;;4.20;2.10;;;;;;;10.58;99.71;101417.84;4948642;28;20097;-72
2020/12/17 11:21:04;;;;;;;5.50;1.90;;;;;;;10.55;100.00;101417.06;4944952;28;20119;-72